METAR Data
IDs: Format: Raw Decoded Include TAF

Data at: 0904 UTC 26 Jan 2020

KEZS 260855Z AUTO 28004KT 10SM OVC050 01/00 A2983 RMK AO2 T00120000
KEZS 260835Z AUTO 28003KT 10SM OVC050 01/00 A2983 RMK AO2 T00130000
KEZS 260815Z AUTO 28003KT 10SM BKN048 OVC060 01/00 A2983 RMK AO2 T00120000
KEZS 260755Z AUTO 27003KT 10SM OVC048 01/00 A2982 RMK AO2 T00110001
KEZS 260735Z AUTO 25003KT 10SM SCT042 OVC048 01/00 A2982 RMK AO2 T00110001
KEZS 260715Z AUTO 00000KT 10SM -SN SCT027 OVC042 01/00 A2982 RMK AO2 T00110000
KEZS 260655Z AUTO 30003KT 5SM -SN SCT027 BKN033 OVC049 01/00 A2983 RMK AO2 T00110000
KEZS 260635Z AUTO 00000KT 3SM -SN BKN027 BKN035 OVC043 01/00 A2982 RMK AO2 T00110002
KEZS 260615Z AUTO 27004KT 7SM -SN SCT035 BKN043 OVC049 01/00 A2983 RMK AO2 T00120003
KEZS 260555Z AUTO 00000KT 10SM -SN BKN043 01/01 A2983 RMK AO2 T00130005 10023 20012 400250005
KEZS 260535Z AUTO 28004KT 2 1/2SM -SN SCT007 BKN016 OVC043 01/01 A2983 RMK AO2 T00120005
KEZS 260515Z AUTO 28003KT 3SM -SN OVC023 01/01 A2982 RMK AO2 T00130005
KEZS 260455Z AUTO 28003KT 5SM -SN SCT027 BKN032 OVC040 02/01 A2982 RMK AO2 T00150006
KEZS 260435Z AUTO 27003KT 10SM RA SCT029 OVC042 02/01 A2982 RMK AO2 T00150006
KEZS 260415Z AUTO 28003KT 10SM SCT034 OVC042 02/01 A2982 RMK AO2 T00160007
KEZS 260355Z AUTO 29004KT 10SM -SN OVC034 02/01 A2982 RMK AO2 T00160007
KEZS 260335Z AUTO 28003KT 10SM -RA BKN037 02/01 A2982 RMK AO2 T00170010
KEZS 260315Z AUTO 00000KT 10SM -DZ SCT039 02/01 A2982 RMK AO2 T00170008
KEZS 260255Z AUTO 30004KT 10SM SCT055 02/01 A2981 RMK AO2 T00190008
KEZS 260235Z AUTO 29004KT 10SM SCT018 SCT024 OVC055 02/01 A2981 RMK AO2 T00200010
KEZS 260215Z AUTO 29003KT 10SM -DZ SCT018 SCT024 BKN037 02/01 A2982 RMK AO2 T00200010
KEZS 260155Z AUTO 29003KT 10SM SCT037 OVC060 02/01 A2982 RMK AO2 T00210011
KEZS 260135Z AUTO 30003KT 10SM SCT029 BKN038 BKN060 02/01 A2982 RMK AO2 T00220011
KEZS 260115Z AUTO 29003KT 10SM OVC038 02/01 A2982 RMK AO2 T00220012
KEZS 260055Z AUTO 28003KT 10SM OVC034 02/01 A2981 RMK AO2 T00220013
KEZS 260035Z AUTO 27003KT 10SM SCT018 SCT025 OVC032 02/01 A2981 RMK AO2 T00220013
KEZS 260015Z AUTO 00000KT 10SM OVC020 02/01 A2980 RMK AO2 T00210014
KEZS 252355Z AUTO 00000KT 10SM OVC020 02/02 A2980 RMK AO2 T00210015 10025 20017
KEZS 252335Z AUTO 25003KT 10SM OVC020 02/01 A2980 RMK AO2 T00220014
KEZS 252315Z AUTO 24003KT 10SM OVC022 02/02 A2980 RMK AO2 T00210015
KEZS 252255Z AUTO 24003KT 10SM SCT024 OVC030 02/01 A2980 RMK AO2 T00210013
KEZS 252235Z AUTO 00000KT 10SM OVC026 02/01 A2979 RMK AO2 T00220012
KEZS 252215Z AUTO 00000KT 10SM SCT010 OVC026 02/01 A2979 RMK AO2 T00230013
KEZS 252155Z AUTO 00000KT 10SM SCT006 SCT013 OVC026 02/01 A2979 RMK AO2 T00240013
KEZS 252135Z AUTO 00000KT 10SM -RA BKN006 BKN013 OVC024 02/01 A2978 RMK AO2 T00240011
KEZS 252115Z AUTO 00000KT 10SM -RA SCT006 OVC020 02/01 A2977 RMK AO2 T00210010
KEZS 252055Z AUTO 00000KT 10SM SCT006 OVC020 02/01 A2977 RMK AO2 T00220010
KEZS 252035Z AUTO 32003KT 10SM BKN008 OVC020 02/01 A2978 RMK AO2 T00230010
KEZS 252015Z AUTO 31003KT 7SM OVC008 02/01 A2977 RMK AO2 T00220010
KEZS 251955Z AUTO 32004KT 10SM OVC010 02/01 A2977 RMK AO2 T00230008
KEZS 251935Z AUTO 32003KT 10SM OVC010 02/01 A2977 RMK AO2 T00210007
KEZS 251915Z AUTO 00000KT 10SM OVC008 02/01 A2978 RMK AO2 T00210006
KEZS 251855Z AUTO 35003KT 10SM BKN008 OVC012 02/01 A2978 RMK AO2 T00200005
KEZS 251835Z AUTO 01003KT 10SM OVC010 02/01 A2977 RMK AO2 T00200005
KEZS 251815Z AUTO 36004KT 10SM OVC008 02/01 A2978 RMK AO2 T00180005
KEZS 251755Z AUTO 36004KT 10SM OVC008 02/01 A2978 RMK AO2 T00170005 10017 20005
KEZS 251735Z AUTO 36004KT 10SM OVC008 02/00 A2979 RMK AO2 T00170004
KEZS 251715Z AUTO 36003KT 10SM OVC008 02/00 A2979 RMK AO2 T00160003
KEZS 251655Z AUTO 36004KT 10SM OVC008 02/00 A2979 RMK AO2 T00160003
KEZS 251635Z AUTO 01004KT 10SM OVC008 02/00 A2979 RMK AO2 T00150003
KEZS 251615Z AUTO 01004KT 10SM OVC008 01/00 A2979 RMK AO2 T00140002
KEZS 251555Z AUTO 36004KT 10SM BKN008 OVC011 01/00 A2978 RMK AO2 T00130001
KEZS 251535Z AUTO 35003KT 10SM OVC013 01/00 A2978 RMK AO2 T00110000
KEZS 251515Z AUTO 34004KT 10SM SCT009 OVC015 01/00 A2978 RMK AO2 T00100000
KEZS 251455Z AUTO 35003KT 10SM BKN009 OVC017 01/00 A2978 RMK AO2 T00100000
KEZS 251435Z AUTO 00000KT 10SM SCT005 SCT011 OVC017 01/00 A2978 RMK AO2 T00070000
KEZS 251415Z AUTO 00000KT 10SM -SN SCT010 BKN017 OVC060 01/00 A2978 RMK AO2 T00060000
KEZS 251355Z AUTO 01003KT 10SM BKN010 BKN017 OVC044 01/00 A2978 RMK AO2 T00060000
KEZS 251335Z AUTO 01003KT 10SM OVC008 01/00 A2978 RMK AO2 T00060000
KEZS 251315Z AUTO 00000KT 4SM -SN OVC008 01/00 A2978 RMK AO2 T00050000
KEZS 251255Z AUTO 00000KT 3SM -RA OVC008 01/00 A2977 RMK AO2 T00050000
KEZS 251235Z AUTO 00000KT 2SM UP OVC008 01/00 A2977 RMK AO2 T00050000
KEZS 251215Z AUTO 00000KT 1 3/4SM UP OVC008 01/00 A2977 RMK AO2 T00050000
KEZS 251155Z AUTO 00000KT 1 3/4SM -SN OVC008 01/00 A2976 RMK AO2 60003 70003 T00060000 10011 20005
KEZS 251135Z AUTO 00000KT 2 1/2SM -SN BKN008 OVC011 01/00 A2975 RMK AO2 T00060000
KEZS 251115Z AUTO 01004KT 1 3/4SM -SN OVC008 01/00 A2975 RMK AO2 T00060000
KEZS 251055Z AUTO 01003KT 1 3/4SM -SN OVC006 01/00 A2975 RMK AO2 P0001 T00060000
KEZS 251035Z AUTO 01005KT 1SM -SN OVC006 01/00 A2975 RMK AO2 P0001 T00060001
KEZS 251015Z AUTO 01004KT 1SM -SN OVC006 01/00 A2976 RMK AO2 T00060001
KEZS 250955Z AUTO 01005KT 1SM -SN OVC006 01/00 A2976 RMK AO2 T00070001
KEZS 250935Z AUTO 01005KT 1 1/2SM -SN OVC004 01/00 A2976 RMK AO2 T00070001
KEZS 250915Z AUTO 01005KT 3/4SM -SN OVC004 01/00 A2977 RMK AO2 T00070002
KEZS 250855Z AUTO 01005KT 3/4SM -SN OVC004 01/00 A2977 RMK AO2 P0001 60002 T00070002
KEZS 250835Z AUTO 01006KT 1SM -SN OVC006 01/00 A2978 RMK AO2 T00070001
KEZS 250815Z AUTO 01006KT 1 3/4SM UP OVC008 01/00 A2978 RMK AO2 T00080002
KEZS 250755Z AUTO 01005KT 1 1/2SM UP OVC008 01/00 A2978 RMK AO2 P0001 T00090002
KEZS 250735Z AUTO 01006KT 2SM -SN OVC008 01/00 A2978 RMK AO2 T00100002
KEZS 250715Z AUTO 01006KT 4SM -SN OVC006 01/00 A2978 RMK AO2 T00100002
KEZS 250655Z AUTO 01005KT 3SM -SN OVC006 01/00 A2979 RMK AO2 T00100003
KEZS 250635Z AUTO 01006KT 3SM -SN OVC006 01/00 A2979 RMK AO2 T00100004
KEZS 250615Z AUTO 02007KT 2SM -SN OVC006 01/00 A2979 RMK AO2 T00100004
KEZS 250555Z AUTO 02006KT 4SM BR OVC006 01/00 A2980 RMK AO2 T00110003 10015 20011 400180010
KEZS 250535Z AUTO 03007KT 10SM OVC006 01/01 A2982 RMK AO2 T00110005
KEZS 250515Z AUTO 02007KT 3SM BR OVC006 01/01 A2981 RMK AO2 T00110005
KEZS 250455Z AUTO 03006KT 10SM OVC006 01/01 A2982 RMK AO2 T00110005
KEZS 250435Z AUTO 03006KT 7SM -SN OVC006 01/01 A2982 RMK AO2 T00110005
KEZS 250415Z AUTO 03007KT 3SM -SN OVC006 01/01 A2982 RMK AO2 T00110005
KEZS 250355Z AUTO 02007KT 10SM -SN OVC006 01/01 A2982 RMK AO2 T00110006
KEZS 250335Z AUTO 02007KT 2SM -SN OVC004 01/01 A2983 RMK AO2 T00110005
KEZS 250315Z AUTO 03007KT 3SM -SN OVC004 01/01 A2984 RMK AO2 T00120006
KEZS 250255Z AUTO 03008KT 2 1/2SM -SN OVC004 01/01 A2984 RMK AO2 T00110006
KEZS 250235Z AUTO 02008KT 3SM -SN OVC004 01/01 A2984 RMK AO2 T00120006
KEZS 250215Z AUTO 02009KT 3SM -SN OVC004 01/01 A2985 RMK AO2 T00120006
KEZS 250155Z AUTO 02007KT 2 1/2SM -RA OVC004 01/01 A2985 RMK AO2 T00120006
KEZS 250135Z AUTO 02008KT 5SM -RA OVC004 01/01 A2986 RMK AO2 T00130008
KEZS 250115Z AUTO 03008KT 4SM -DZ OVC004 02/01 A2986 RMK AO2 T00150010
KEZS 250055Z AUTO 04006KT 3SM BR OVC004 02/01 A2987 RMK AO2 T00150010
KEZS 250035Z AUTO 03007KT 2SM BR OVC004 02/01 A2987 RMK AO2 T00150010
KEZS 250015Z AUTO 03006KT 2SM BR OVC004 02/01 A2987 RMK AO2 T00150011
KEZS 242355Z AUTO 04006KT 2SM BR OVC004 02/01 A2988 RMK AO2 T00150010 10018 20015
KEZS 242335Z AUTO 04007KT 4SM BR OVC004 02/01 A2988 RMK AO2 T00150010
KEZS 242315Z AUTO 04005KT 5SM BR OVC004 02/01 A2988 RMK AO2 T00160009
KEZS 242255Z AUTO 04005KT 5SM BR OVC004 02/01 A2988 RMK AO2 T00160010
KEZS 242235Z AUTO 04005KT 5SM BR OVC004 02/01 A2988 RMK AO2 T00160010
KEZS 242215Z AUTO 05005KT 3SM BR OVC004 02/01 A2988 RMK AO2 T00160010
KEZS 242155Z AUTO 05006KT 2SM BR OVC004 02/01 A2989 RMK AO2 T00160010
KEZS 242135Z AUTO 05005KT 2SM -RA OVC004 02/01 A2989 RMK AO2 T00150010
KEZS 242115Z AUTO 06005KT 2SM RA OVC004 02/01 A2990 RMK AO2 T00150009